sensor_id;sensor_type;location;lat;lon;timestamp;pressure;altitude;pressure_sealevel;temperature;humidity
59829;BME280;45708;51.848;107.620;2023-06-14T00:04:16;94253.94;;;19.56;57.32
59829;BME280;45708;51.848;107.620;2023-06-14T00:09:17;94259.78;;;20.81;55.25
59829;BME280;45708;51.848;107.620;2023-06-14T00:14:18;94265.06;;;22.81;51.88
59829;BME280;45708;51.848;107.620;2023-06-14T00:19:18;94269.19;;;22.70;51.77
59829;BME280;45708;51.848;107.620;2023-06-14T00:24:19;94259.69;;;22.81;50.99
59829;BME280;45708;51.848;107.620;2023-06-14T00:29:20;94259.38;;;22.74;51.03
59829;BME280;45708;51.848;107.620;2023-06-14T00:34:21;94253.19;;;22.08;52.14
59829;BME280;45708;51.848;107.620;2023-06-14T00:39:22;94249.94;;;21.89;52.02
59829;BME280;45708;51.848;107.620;2023-06-14T00:44:22;94254.16;;;21.05;52.92
59829;BME280;45708;51.848;107.620;2023-06-14T00:49:23;94258.25;;;20.67;53.46
59829;BME280;45708;51.848;107.620;2023-06-14T00:54:24;94257.09;;;19.90;54.04
59829;BME280;45708;51.848;107.620;2023-06-14T00:59:25;94265.56;;;19.00;56.13
59829;BME280;45708;51.848;107.620;2023-06-14T01:04:26;94263.28;;;18.50;56.79
59829;BME280;45708;51.848;107.620;2023-06-14T01:14:57;94250.25;;;18.01;56.83
59829;BME280;45708;51.848;107.620;2023-06-14T01:20:03;94253.13;;;17.86;58.11
59829;BME280;45708;51.848;107.620;2023-06-14T01:25:05;94245.56;;;17.69;57.62
59829;BME280;45708;51.848;107.620;2023-06-14T01:30:06;94243.69;;;17.70;57.66
59829;BME280;45708;51.848;107.620;2023-06-14T01:35:08;94228.22;;;17.61;57.57
59829;BME280;45708;51.848;107.620;2023-06-14T01:40:10;94237.53;;;17.40;57.64
59829;BME280;45708;51.848;107.620;2023-06-14T01:45:12;94222.72;;;17.29;57.49
59829;BME280;45708;51.848;107.620;2023-06-14T01:50:13;94230.28;;;17.75;56.58
59829;BME280;45708;51.848;107.620;2023-06-14T01:55:14;94223.31;;;17.98;55.88
59829;BME280;45708;51.848;107.620;2023-06-14T02:00:15;94225.56;;;18.33;55.17
59829;BME280;45708;51.848;107.620;2023-06-14T02:05:16;94213.56;;;18.49;54.54
59829;BME280;45708;51.848;107.620;2023-06-14T02:10:17;94211.31;;;18.57;54.19
59829;BME280;45708;51.848;107.620;2023-06-14T02:15:18;94200.47;;;19.18;53.20
59829;BME280;45708;51.848;107.620;2023-06-14T02:20:19;94192.56;;;19.27;52.77
59829;BME280;45708;51.848;107.620;2023-06-14T02:25:19;94186.38;;;19.12;53.03
59829;BME280;45708;51.848;107.620;2023-06-14T02:30:20;94193.75;;;18.88;52.52
59829;BME280;45708;51.848;107.620;2023-06-14T02:35:21;94183.84;;;18.89;52.47
59829;BME280;45708;51.848;107.620;2023-06-14T02:40:23;94203.41;;;18.70;52.33
59829;BME280;45708;51.848;107.620;2023-06-14T02:45:23;94199.09;;;18.50;52.42
59829;BME280;45708;51.848;107.620;2023-06-14T02:50:24;94168.91;;;18.31;52.56
59829;BME280;45708;51.848;107.620;2023-06-14T02:55:25;94177.78;;;18.27;52.76
59829;BME280;45708;51.848;107.620;2023-06-14T03:00:26;94169.50;;;18.28;52.32
59829;BME280;45708;51.848;107.620;2023-06-14T03:05:27;94174.97;;;18.37;51.96
59829;BME280;45708;51.848;107.620;2023-06-14T03:10:28;94174.22;;;17.93;52.11
59829;BME280;45708;51.848;107.620;2023-06-14T03:15:28;94162.63;;;18.03;52.10
59829;BME280;45708;51.848;107.620;2023-06-14T03:20:29;94149.59;;;18.53;51.21
59829;BME280;45708;51.848;107.620;2023-06-14T03:25:30;94136.47;;;18.89;50.72
59829;BME280;45708;51.848;107.620;2023-06-14T03:30:31;94144.53;;;19.03;50.41
59829;BME280;45708;51.848;107.620;2023-06-14T03:35:32;94134.03;;;19.20;50.27
59829;BME280;45708;51.848;107.620;2023-06-14T03:40:33;94137.78;;;19.65;49.35
59829;BME280;45708;51.848;107.620;2023-06-14T03:45:34;94131.41;;;20.02;48.73
59829;BME280;45708;51.848;107.620;2023-06-14T03:50:35;94118.38;;;20.10;48.65
59829;BME280;45708;51.848;107.620;2023-06-14T03:55:36;94118.25;;;20.15;48.17
59829;BME280;45708;51.848;107.620;2023-06-14T04:00:37;94116.22;;;20.20;48.48
59829;BME280;45708;51.848;107.620;2023-06-14T04:05:37;94115.28;;;20.52;47.65
59829;BME280;45708;51.848;107.620;2023-06-14T04:10:38;94105.91;;;20.63;47.34
59829;BME280;45708;51.848;107.620;2023-06-14T04:15:39;94097.78;;;20.19;46.51
59829;BME280;45708;51.848;107.620;2023-06-14T04:20:40;94096.56;;;19.75;46.89
59829;BME280;45708;51.848;107.620;2023-06-14T04:25:41;94089.34;;;20.12;46.41
59829;BME280;45708;51.848;107.620;2023-06-14T04:30:42;94078.94;;;20.69;44.60
59829;BME280;45708;51.848;107.620;2023-06-14T04:35:43;94064.97;;;20.22;45.12
59829;BME280;45708;51.848;107.620;2023-06-14T04:40:44;94044.25;;;19.91;45.62
59829;BME280;45708;51.848;107.620;2023-06-14T04:45:45;94036.09;;;20.19;45.40
59829;BME280;45708;51.848;107.620;2023-06-14T04:50:46;94026.78;;;20.61;44.75
59829;BME280;45708;51.848;107.620;2023-06-14T04:55:47;94024.81;;;20.75;44.36
59829;BME280;45708;51.848;107.620;2023-06-14T05:00:47;94016.72;;;20.67;44.42
59829;BME280;45708;51.848;107.620;2023-06-14T05:05:48;94014.78;;;20.58;44.28
59829;BME280;45708;51.848;107.620;2023-06-14T05:10:49;93999.56;;;20.45;44.35
59829;BME280;45708;51.848;107.620;2023-06-14T05:15:50;93989.75;;;20.72;43.91
59829;BME280;45708;51.848;107.620;2023-06-14T05:20:51;93968.75;;;20.74;43.46
59829;BME280;45708;51.848;107.620;2023-06-14T05:25:52;93959.69;;;20.61;43.41
59829;BME280;45708;51.848;107.620;2023-06-14T05:30:52;93931.81;;;20.71;43.19
59829;BME280;45708;51.848;107.620;2023-06-14T05:35:54;93939.75;;;21.24;41.68
59829;BME280;45708;51.848;107.620;2023-06-14T05:40:55;93913.25;;;21.00;39.99
59829;BME280;45708;51.848;107.620;2023-06-14T05:45:55;93900.88;;;21.30;39.08
59829;BME280;45708;51.848;107.620;2023-06-14T05:50:56;93904.47;;;21.08;39.37
59829;BME280;45708;51.848;107.620;2023-06-14T05:55:57;93901.63;;;21.13;38.90
59829;BME280;45708;51.848;107.620;2023-06-14T06:00:58;93895.50;;;20.64;39.48
59829;BME280;45708;51.848;107.620;2023-06-14T06:05:59;93880.78;;;20.53;39.68
59829;BME280;45708;51.848;107.620;2023-06-14T06:11:00;93871.59;;;20.46;39.82
59829;BME280;45708;51.848;107.620;2023-06-14T06:16:02;93868.69;;;20.82;39.78
59829;BME280;45708;51.848;107.620;2023-06-14T06:21:04;93873.28;;;20.81;39.93
59829;BME280;45708;51.848;107.620;2023-06-14T06:26:05;93849.63;;;21.01;39.22
59829;BME280;45708;51.848;107.620;2023-06-14T06:31:05;93815.81;;;20.74;39.21
59829;BME280;45708;51.848;107.620;2023-06-14T06:36:06;93829.56;;;20.98;38.87
59829;BME280;45708;51.848;107.620;2023-06-14T06:41:07;93833.50;;;21.01;39.00
59829;BME280;45708;51.848;107.620;2023-06-14T06:46:08;93814.09;;;20.95;39.12
59829;BME280;45708;51.848;107.620;2023-06-14T06:51:09;93805.94;;;21.43;38.73
59829;BME280;45708;51.848;107.620;2023-06-14T06:56:10;93784.69;;;21.68;38.15
59829;BME280;45708;51.848;107.620;2023-06-14T07:01:11;93786.13;;;21.65;37.94
59829;BME280;45708;51.848;107.620;2023-06-14T07:06:12;93773.16;;;21.67;37.86
59829;BME280;45708;51.848;107.620;2023-06-14T07:11:13;93774.78;;;21.34;37.46
59829;BME280;45708;51.848;107.620;2023-06-14T07:16:14;93759.09;;;21.62;37.17
59829;BME280;45708;51.848;107.620;2023-06-14T07:21:14;93747.97;;;22.27;36.62
59829;BME280;45708;51.848;107.620;2023-06-14T07:26:15;93740.59;;;22.45;35.73
59829;BME280;45708;51.848;107.620;2023-06-14T07:31:16;93744.44;;;21.97;35.07
59829;BME280;45708;51.848;107.620;2023-06-14T07:36:17;93725.66;;;21.89;34.88
59829;BME280;45708;51.848;107.620;2023-06-14T07:41:18;93713.47;;;21.91;34.87
59829;BME280;45708;51.848;107.620;2023-06-14T07:46:20;93699.00;;;22.13;35.38
59829;BME280;45708;51.848;107.620;2023-06-14T07:51:20;93684.69;;;22.21;34.53
59829;BME280;45708;51.848;107.620;2023-06-14T07:56:21;93678.16;;;22.31;34.46
59829;BME280;45708;51.848;107.620;2023-06-14T08:01:22;93681.59;;;22.61;34.10
59829;BME280;45708;51.848;107.620;2023-06-14T08:06:23;93679.72;;;22.82;33.53
59829;BME280;45708;51.848;107.620;2023-06-14T08:11:24;93680.91;;;22.93;33.61
59829;BME280;45708;51.848;107.620;2023-06-14T08:16:24;93669.34;;;22.93;33.49
59829;BME280;45708;51.848;107.620;2023-06-14T08:21:25;93653.97;;;22.72;33.35
59829;BME280;45708;51.848;107.620;2023-06-14T08:26:26;93659.34;;;22.72;32.62
59829;BME280;45708;51.848;107.620;2023-06-14T08:31:27;93645.31;;;22.67;33.01
59829;BME280;45708;51.848;107.620;2023-06-14T08:36:28;93637.03;;;22.72;32.82
59829;BME280;45708;51.848;107.620;2023-06-14T08:41:28;93606.28;;;22.73;32.78
59829;BME280;45708;51.848;107.620;2023-06-14T08:46:32;93622.09;;;22.83;33.51
59829;BME280;45708;51.848;107.620;2023-06-14T08:51:35;93618.28;;;22.84;33.60
59829;BME280;45708;51.848;107.620;2023-06-14T08:56:37;93613.25;;;22.74;33.22
59829;BME280;45708;51.848;107.620;2023-06-14T09:01:39;93604.38;;;22.94;33.32
59829;BME280;45708;51.848;107.620;2023-06-14T09:06:41;93604.59;;;22.89;33.19
59829;BME280;45708;51.848;107.620;2023-06-14T09:11:42;93562.19;;;22.65;33.11
59829;BME280;45708;51.848;107.620;2023-06-14T09:16:43;93588.78;;;22.67;33.06
59829;BME280;45708;51.848;107.620;2023-06-14T09:21:47;93583.44;;;22.79;33.94
59829;BME280;45708;51.848;107.620;2023-06-14T09:26:50;93579.81;;;22.96;33.80
59829;BME280;45708;51.848;107.620;2023-06-14T09:31:52;93579.34;;;22.94;33.21
59829;BME280;45708;51.848;107.620;2023-06-14T09:36:54;93578.47;;;22.69;33.78
59829;BME280;45708;51.848;107.620;2023-06-14T09:41:55;93563.47;;;22.80;33.42
59829;BME280;45708;51.848;107.620;2023-06-14T09:46:56;93554.47;;;22.76;33.34
59829;BME280;45708;51.848;107.620;2023-06-14T09:51:58;93547.38;;;22.92;33.56
59829;BME280;45708;51.848;107.620;2023-06-14T09:56:59;93547.75;;;23.03;33.52
59829;BME280;45708;51.848;107.620;2023-06-14T10:02:09;93538.56;;;23.04;34.82
59829;BME280;45708;51.848;107.620;2023-06-14T10:07:11;93530.78;;;22.90;34.15
59829;BME280;45708;51.848;107.620;2023-06-14T10:12:13;93526.97;;;22.91;34.17
59829;BME280;45708;51.848;107.620;2023-06-14T10:17:22;93521.84;;;23.11;35.14
59829;BME280;45708;51.848;107.620;2023-06-14T10:22:34;93523.84;;;23.14;34.24
59829;BME280;45708;51.848;107.620;2023-06-14T10:27:37;93518.91;;;23.03;34.55
59829;BME280;45708;51.848;107.620;2023-06-14T10:33:05;93518.47;;;23.14;35.62
59829;BME280;45708;51.848;107.620;2023-06-14T10:38:11;93516.22;;;23.16;34.86
59829;BME280;45708;51.848;107.620;2023-06-14T10:43:22;93521.84;;;23.23;35.78
59829;BME280;45708;51.848;107.620;2023-06-14T10:48:29;93520.03;;;23.15;35.45
59829;BME280;45708;51.848;107.620;2023-06-14T10:53:40;93522.69;;;23.02;35.62
59829;BME280;45708;51.848;107.620;2023-06-14T10:58:41;93517.31;;;22.90;34.96
59829;BME280;45708;51.848;107.620;2023-06-14T11:13:56;93509.47;;;22.85;34.37
59829;BME280;45708;51.848;107.620;2023-06-14T11:18:57;93504.91;;;22.77;34.10
59829;BME280;45708;51.848;107.620;2023-06-14T11:23:58;93515.66;;;22.77;34.61
59829;BME280;45708;51.848;107.620;2023-06-14T11:29:00;93510.72;;;22.67;34.31
59829;BME280;45708;51.848;107.620;2023-06-14T11:34:01;93515.22;;;22.63;34.23
59829;BME280;45708;51.848;107.620;2023-06-14T11:39:06;93514.16;;;22.55;34.76
59829;BME280;45708;51.848;107.620;2023-06-14T11:44:07;93514.59;;;22.45;34.04
59829;BME280;45708;51.848;107.620;2023-06-14T11:49:08;93514.19;;;22.34;33.92
59829;BME280;45708;51.848;107.620;2023-06-14T11:54:09;93512.56;;;22.21;34.17
59829;BME280;45708;51.848;107.620;2023-06-14T11:59:10;93508.97;;;22.17;34.40
59829;BME280;45708;51.848;107.620;2023-06-14T12:04:14;93512.97;;;22.11;34.22
59829;BME280;45708;51.848;107.620;2023-06-14T12:09:16;93517.13;;;22.00;34.97
59829;BME280;45708;51.848;107.620;2023-06-14T12:14:16;93502.72;;;21.83;35.06
59829;BME280;45708;51.848;107.620;2023-06-14T12:19:17;93508.03;;;21.71;35.35
59829;BME280;45708;51.848;107.620;2023-06-14T12:24:18;93512.84;;;21.57;35.90
59829;BME280;45708;51.848;107.620;2023-06-14T12:29:19;93509.78;;;21.38;36.12
59829;BME280;45708;51.848;107.620;2023-06-14T12:34:20;93506.25;;;21.25;36.67
59829;BME280;45708;51.848;107.620;2023-06-14T12:39:21;93501.06;;;21.11;36.89
59829;BME280;45708;51.848;107.620;2023-06-14T12:44:22;93507.59;;;20.93;37.39
59829;BME280;45708;51.848;107.620;2023-06-14T12:49:22;93499.47;;;20.72;37.48
59829;BME280;45708;51.848;107.620;2023-06-14T12:54:23;93510.84;;;20.60;37.96
59829;BME280;45708;51.848;107.620;2023-06-14T12:59:24;93509.16;;;20.47;38.50
59829;BME280;45708;51.848;107.620;2023-06-14T13:04:25;93511.22;;;20.33;38.92
59829;BME280;45708;51.848;107.620;2023-06-14T13:09:25;93515.00;;;20.23;39.11
59829;BME280;45708;51.848;107.620;2023-06-14T13:14:26;93513.25;;;20.01;39.71
59829;BME280;45708;51.848;107.620;2023-06-14T13:19:27;93512.97;;;19.94;39.90
59829;BME280;45708;51.848;107.620;2023-06-14T13:24:28;93517.53;;;19.85;40.23
59829;BME280;45708;51.848;107.620;2023-06-14T13:29:29;93530.59;;;19.78;40.39
59829;BME280;45708;51.848;107.620;2023-06-14T13:34:30;93531.53;;;19.65;40.78
59829;BME280;45708;51.848;107.620;2023-06-14T13:39:31;93522.03;;;19.50;41.18
59829;BME280;45708;51.848;107.620;2023-06-14T13:44:32;93535.09;;;19.43;41.69
59829;BME280;45708;51.848;107.620;2023-06-14T13:49:32;93553.00;;;19.34;42.32
59829;BME280;45708;51.848;107.620;2023-06-14T13:54:33;93560.66;;;19.18;43.06
59829;BME280;45708;51.848;107.620;2023-06-14T13:59:34;93567.72;;;19.05;43.62
59829;BME280;45708;51.848;107.620;2023-06-14T14:04:35;93559.91;;;18.87;44.50
59829;BME280;45708;51.848;107.620;2023-06-14T14:09:36;93559.19;;;18.72;45.09
59829;BME280;45708;51.848;107.620;2023-06-14T14:14:36;93570.97;;;18.63;45.60
59829;BME280;45708;51.848;107.620;2023-06-14T14:19:37;93565.66;;;18.49;46.09
59829;BME280;45708;51.848;107.620;2023-06-14T14:24:38;93563.19;;;18.39;46.86
59829;BME280;45708;51.848;107.620;2023-06-14T14:29:39;93572.09;;;18.26;47.11
59829;BME280;45708;51.848;107.620;2023-06-14T14:34:40;93573.88;;;18.16;47.46
59829;BME280;45708;51.848;107.620;2023-06-14T14:39:41;93569.41;;;18.03;47.76
59829;BME280;45708;51.848;107.620;2023-06-14T14:44:42;93571.81;;;17.91;48.05
59829;BME280;45708;51.848;107.620;2023-06-14T14:49:42;93573.19;;;17.88;48.09
59829;BME280;45708;51.848;107.620;2023-06-14T14:54:43;93566.78;;;17.76;48.45
59829;BME280;45708;51.848;107.620;2023-06-14T14:59:44;93572.53;;;17.69;48.86
59829;BME280;45708;51.848;107.620;2023-06-14T15:04:46;93567.69;;;17.57;49.04
59829;BME280;45708;51.848;107.620;2023-06-14T15:09:46;93569.25;;;17.58;49.07
59829;BME280;45708;51.848;107.620;2023-06-14T15:14:47;93564.53;;;17.42;49.41
59829;BME280;45708;51.848;107.620;2023-06-14T15:19:48;93569.19;;;17.36;49.57
59829;BME280;45708;51.848;107.620;2023-06-14T15:24:49;93520.06;;;16.96;49.73
59829;BME280;45708;51.848;107.620;2023-06-14T15:29:50;93578.00;;;17.23;50.15
59829;BME280;45708;51.848;107.620;2023-06-14T15:34:51;93583.41;;;17.18;50.34
59829;BME280;45708;51.848;107.620;2023-06-14T15:39:51;93582.13;;;17.15;50.11
59829;BME280;45708;51.848;107.620;2023-06-14T15:44:52;93591.03;;;17.11;50.21
59829;BME280;45708;51.848;107.620;2023-06-14T15:49:53;93588.47;;;17.06;50.60
59829;BME280;45708;51.848;107.620;2023-06-14T15:54:54;93548.09;;;16.66;51.01
59829;BME280;45708;51.848;107.620;2023-06-14T15:59:54;93585.88;;;17.00;50.81
59829;BME280;45708;51.848;107.620;2023-06-14T16:04:55;93593.28;;;16.90;51.13
59829;BME280;45708;51.848;107.620;2023-06-14T16:09:56;93595.41;;;16.74;51.45
59829;BME280;45708;51.848;107.620;2023-06-14T16:14:57;93601.84;;;16.73;51.32
59829;BME280;45708;51.848;107.620;2023-06-14T16:19:58;93548.78;;;16.25;51.31
59829;BME280;45708;51.848;107.620;2023-06-14T16:24:58;93617.94;;;16.68;51.63
59829;BME280;45708;51.848;107.620;2023-06-14T16:29:59;93652.06;;;16.66;51.57
59829;BME280;45708;51.848;107.620;2023-06-14T16:35:00;93683.84;;;16.62;51.36
59829;BME280;45708;51.848;107.620;2023-06-14T16:40:01;93662.25;;;16.26;52.32
59829;BME280;45708;51.848;107.620;2023-06-14T16:45:02;93684.41;;;16.40;52.54
59829;BME280;45708;51.848;107.620;2023-06-14T16:50:03;93709.94;;;16.47;52.33
59829;BME280;45708;51.848;107.620;2023-06-14T16:55:04;93716.97;;;16.37;52.48
59829;BME280;45708;51.848;107.620;2023-06-14T17:00:06;93713.50;;;16.18;53.16
59829;BME280;45708;51.848;107.620;2023-06-14T17:05:07;93724.25;;;16.13;53.10
59829;BME280;45708;51.848;107.620;2023-06-14T17:10:08;93727.19;;;16.11;53.50
59829;BME280;45708;51.848;107.620;2023-06-14T17:15:09;93733.19;;;16.22;53.26
59829;BME280;45708;51.848;107.620;2023-06-14T17:20:10;93735.59;;;16.42;52.91
59829;BME280;45708;51.848;107.620;2023-06-14T17:25:11;93726.75;;;16.61;52.39
59829;BME280;45708;51.848;107.620;2023-06-14T17:30:13;93715.56;;;16.64;52.71
59829;BME280;45708;51.848;107.620;2023-06-14T17:35:14;93700.06;;;16.47;52.69
59829;BME280;45708;51.848;107.620;2023-06-14T17:40:15;93788.34;;;16.83;52.84
59829;BME280;45708;51.848;107.620;2023-06-14T17:45:16;93815.59;;;16.80;53.25
59829;BME280;45708;51.848;107.620;2023-06-14T17:50:17;93816.47;;;16.52;53.00
59829;BME280;45708;51.848;107.620;2023-06-14T17:55:19;93846.22;;;16.16;53.37
59829;BME280;45708;51.848;107.620;2023-06-14T18:00:19;93843.41;;;15.78;53.76
59829;BME280;45708;51.848;107.620;2023-06-14T18:05:20;93871.88;;;15.49;53.67
59829;BME280;45708;51.848;107.620;2023-06-14T18:10:21;93895.06;;;15.04;54.17
59829;BME280;45708;51.848;107.620;2023-06-14T18:15:22;93914.41;;;14.66;54.54
59829;BME280;45708;51.848;107.620;2023-06-14T18:20:23;93883.19;;;14.22;54.81
59829;BME280;45708;51.848;107.620;2023-06-14T18:25:24;93949.03;;;14.30;55.10
59829;BME280;45708;51.848;107.620;2023-06-14T18:30:25;93914.34;;;13.65;55.32
59829;BME280;45708;51.848;107.620;2023-06-14T18:35:26;93929.13;;;13.21;55.68
59829;BME280;45708;51.848;107.620;2023-06-14T18:40:27;93940.72;;;12.84;56.22
59829;BME280;45708;51.848;107.620;2023-06-14T18:45:29;94026.94;;;13.07;56.50
59829;BME280;45708;51.848;107.620;2023-06-14T18:50:30;94060.25;;;12.83;57.21
59829;BME280;45708;51.848;107.620;2023-06-14T18:55:31;94070.88;;;12.45;57.42
59829;BME280;45708;51.848;107.620;2023-06-14T19:00:31;94087.41;;;12.26;58.20
59829;BME280;45708;51.848;107.620;2023-06-14T19:05:32;94044.59;;;11.75;57.93
59829;BME280;45708;51.848;107.620;2023-06-14T19:10:33;94080.66;;;11.81;58.29
59829;BME280;45708;51.848;107.620;2023-06-14T19:15:34;94071.53;;;11.67;58.71
59829;BME280;45708;51.848;107.620;2023-06-14T19:20:34;94093.19;;;11.64;58.14
59829;BME280;45708;51.848;107.620;2023-06-14T19:25:35;94069.66;;;11.40;58.44
59829;BME280;45708;51.848;107.620;2023-06-14T19:30:36;94119.97;;;11.45;59.07
59829;BME280;45708;51.848;107.620;2023-06-14T19:35:37;94114.25;;;11.32;58.82
59829;BME280;45708;51.848;107.620;2023-06-14T19:40:41;94163.25;;;11.39;59.42
59829;BME280;45708;51.848;107.620;2023-06-14T19:45:42;94154.81;;;11.20;59.91
59829;BME280;45708;51.848;107.620;2023-06-14T19:50:43;94161.94;;;10.98;59.98
59829;BME280;45708;51.848;107.620;2023-06-14T19:55:44;94159.00;;;10.78;60.63
59829;BME280;45708;51.848;107.620;2023-06-14T20:00:45;94171.50;;;10.82;60.68
59829;BME280;45708;51.848;107.620;2023-06-14T20:05:46;94164.69;;;10.70;60.48
59829;BME280;45708;51.848;107.620;2023-06-14T20:10:47;94175.59;;;10.73;59.71
59829;BME280;45708;51.848;107.620;2023-06-14T20:15:48;94200.06;;;10.85;59.41
59829;BME280;45708;51.848;107.620;2023-06-14T20:20:49;94216.41;;;10.82;59.47
59829;BME280;45708;51.848;107.620;2023-06-14T20:25:50;94231.78;;;10.85;59.35
59829;BME280;45708;51.848;107.620;2023-06-14T20:30:51;94234.00;;;10.60;59.66
59829;BME280;45708;51.848;107.620;2023-06-14T20:35:52;94253.06;;;10.62;58.93
59829;BME280;45708;51.848;107.620;2023-06-14T20:40:52;94224.69;;;10.24;59.76
59829;BME280;45708;51.848;107.620;2023-06-14T20:45:54;94279.84;;;9.97;60.63
59829;BME280;45708;51.848;107.620;2023-06-14T20:50:55;94283.78;;;9.83;60.56
59829;BME280;45708;51.848;107.620;2023-06-14T20:55:56;94266.53;;;9.63;60.45
59829;BME280;45708;51.848;107.620;2023-06-14T21:00:57;94320.63;;;9.54;60.58
59829;BME280;45708;51.848;107.620;2023-06-14T21:05:58;94341.81;;;9.59;61.27
59829;BME280;45708;51.848;107.620;2023-06-14T21:10:58;94361.22;;;9.53;60.70
59829;BME280;45708;51.848;107.620;2023-06-14T21:15:59;94354.69;;;9.44;61.00
59829;BME280;45708;51.848;107.620;2023-06-14T21:21:00;94365.34;;;9.49;60.50
59829;BME280;45708;51.848;107.620;2023-06-14T21:26:01;94360.19;;;9.31;60.85
59829;BME280;45708;51.848;107.620;2023-06-14T21:31:06;94382.75;;;9.27;61.16
59829;BME280;45708;51.848;107.620;2023-06-14T21:36:07;94336.53;;;8.89;60.84
59829;BME280;45708;51.848;107.620;2023-06-14T21:41:08;94382.16;;;9.13;60.98
59829;BME280;45708;51.848;107.620;2023-06-14T21:46:09;94376.53;;;9.09;60.93
59829;BME280;45708;51.848;107.620;2023-06-14T21:51:10;94419.53;;;9.33;60.44
59829;BME280;45708;51.848;107.620;2023-06-14T21:56:10;94382.81;;;8.97;60.55
59829;BME280;45708;51.848;107.620;2023-06-14T22:01:11;94428.09;;;9.05;60.54
59829;BME280;45708;51.848;107.620;2023-06-14T22:06:12;94396.31;;;8.89;60.79
59829;BME280;45708;51.848;107.620;2023-06-14T22:11:13;94428.31;;;9.15;60.53
59829;BME280;45708;51.848;107.620;2023-06-14T22:16:14;94448.72;;;9.08;60.98
59829;BME280;45708;51.848;107.620;2023-06-14T22:21:15;94406.59;;;8.48;62.14
59829;BME280;45708;51.848;107.620;2023-06-14T22:26:16;94438.88;;;8.01;64.57
59829;BME280;45708;51.848;107.620;2023-06-14T22:31:17;94462.63;;;7.51;66.37
59829;BME280;45708;51.848;107.620;2023-06-14T22:36:17;94435.59;;;6.87;68.47
59829;BME280;45708;51.848;107.620;2023-06-14T22:41:18;94470.00;;;6.72;73.46
59829;BME280;45708;51.848;107.620;2023-06-14T22:46:19;94471.75;;;6.47;75.02
59829;BME280;45708;51.848;107.620;2023-06-14T22:51:22;94428.16;;;6.01;76.25
59829;BME280;45708;51.848;107.620;2023-06-14T22:56:23;94475.47;;;6.20;77.01
59829;BME280;45708;51.848;107.620;2023-06-14T23:01:25;94449.09;;;6.08;78.32
59829;BME280;45708;51.848;107.620;2023-06-14T23:06:25;94449.72;;;6.03;78.28
59829;BME280;45708;51.848;107.620;2023-06-14T23:11:26;94525.44;;;6.45;79.29
59829;BME280;45708;51.848;107.620;2023-06-14T23:16:27;94541.97;;;6.52;79.25
59829;BME280;45708;51.848;107.620;2023-06-14T23:21:28;94523.38;;;6.53;80.74
59829;BME280;45708;51.848;107.620;2023-06-14T23:26:29;94559.28;;;6.66;80.86
59829;BME280;45708;51.848;107.620;2023-06-14T23:31:29;94524.25;;;6.34;81.19
59829;BME280;45708;51.848;107.620;2023-06-14T23:36:30;94602.84;;;6.74;81.33
59829;BME280;45708;51.848;107.620;2023-06-14T23:41:31;94473.00;;;6.31;81.80
59829;BME280;45708;51.848;107.620;2023-06-14T23:46:32;94568.81;;;6.98;81.91
59829;BME280;45708;51.848;107.620;2023-06-14T23:51:33;94559.94;;;6.99;82.56
59829;BME280;45708;51.848;107.620;2023-06-14T23:56:35;94541.88;;;7.16;82.13
